Nearby METAR Reports

 

KDAA - Fort Belvoir/Dav, Virginia, USA
Distance from station: SE 9mi, 15km
Updated: Mon, 12-Apr-2021 2:56am EDT
Overcast
Overcast
 Wind from calm
Wind: Calm
Temperature: 63°F , 17°C
Dew Point: 50°F , 10°C
Humidity: 64%
Barometer: 29.59 inHg , 1002 hPa
Clouds: Overcast
Visibility: 10 miles , 16 km
Cloud details: Overcast 10000 ft
2021/04/12 06:56 KDAA 120656Z AUTO 00000KT 10SM OVC100 17/10 A2959 RMK AO2 SLP023 T01700101 $
KIAD - Wash Dc/Dulles, Virginia, USA
Distance from station: NW 12mi, 19km
Updated: Mon, 12-Apr-2021 2:52am EDT
Overcast
Overcast
 Wind from NNE
Wind: NNE 8 mph , 13 km/h
Temperature: 63°F , 17°C
Dew Point: 50°F , 10°C
Humidity: 64%
Barometer: 29.60 inHg , 1002.4 hPa
Clouds: Overcast
Visibility: 10 miles , 16 km
Cloud details: Overcast 10000 ft
2021/04/12 06:52 KIAD 120652Z 02007KT 10SM OVC100 17/10 A2960 RMK AO2 SLP020 T01670100 $
 
KHEF - Manassas Muni, Virginia, USA
Distance from station: WSW 14mi, 22km
Updated: Mon, 12-Apr-2021 2:56am EDT
Overcast
Overcast
 Wind from N
Wind: N 8 mph , 13 km/h
Temperature: 61°F , 16°C
Dew Point: 52°F , 11°C
Humidity: 72%
Barometer: 29.60 inHg , 1002.4 hPa
Clouds: Overcast
Visibility: 10 miles , 16 km
Cloud details: Overcast 12000 ft
2021/04/12 06:56 KHEF 120656Z AUTO 36007KT 10SM OVC120 16/11 A2960 RMK AO2 SLP027 T01610106
KDCA - Washington/Natl, Washington D.c., USA
Distance from station: ENE 14mi, 23km
Updated: Mon, 12-Apr-2021 2:52am EDT
Overcast
Overcast
 Wind from N
Wind: N 12 mph , 19 km/h
Temperature: 63°F , 17°C
Dew Point: 54°F , 12°C
Humidity: 73%
Barometer: 29.60 inHg , 1002.4 hPa
Clouds: Overcast
Visibility: 10 miles , 16 km
Cloud details: Overcast 11000 ft
2021/04/12 06:52 KDCA 120652Z 01010KT 10SM OVC110 17/12 A2960 RMK AO2 SLP023 T01670117
 
KNYG - Quantico Mcaf, Virginia, USA
Distance from station: S 21mi, 34km
Updated: Mon, 12-Apr-2021 2:56am EDT
Haze, Mostly cloudy
Haze, Mostly cloudy
 Wind from N
Wind: N 10 mph , 17 km/h
Temperature: 64°F , 18°C
Dew Point: 50°F , 10°C
Humidity: 60%
Barometer: 29.59 inHg , 1002 hPa
Summary: Haze
Clouds: Mostly cloudy
Visibility: 5 miles , 8 km
Cloud details: Mostly cloudy 12000 ft
2021/04/12 06:56 KNYG 120656Z AUTO 36009KT 5SM HZ BKN120 18/10 A2959 RMK AO2 SLP020 T01830100 $
KADW - Andrews Afb, Maryland, USA
Distance from station: E 23mi, 37km
Updated: Mon, 12-Apr-2021 2:56am EDT
Mostly cloudy
Mostly cloudy
 Wind from N
Wind: N 7 mph , 11 km/h
Temperature: 59°F , 15°C
Dew Point: 55°F , 13°C
Humidity: 88%
Barometer: 29.59 inHg , 1002 hPa
Clouds: Mostly cloudy
Visibility: 10 miles , 16 km
Cloud details: Mostly cloudy 8500 ft
Mostly cloudy 11000 ft
2021/04/12 06:56 KADW 120656Z AUTO 01006KT 10SM BKN085 BKN110 15/13 A2959 RMK AO2 DZB24E47 SLP025 P0000 T01480130 $
 
KJYO - Leesburg/Godfrey, Virginia, USA
Distance from station: NW 23mi, 37km
Updated: Mon, 12-Apr-2021 3:35am EDT
Mostly cloudy
Mostly cloudy
 Wind from NNE
Wind: NNE 6 mph , 9 km/h
Temperature: 55°F , 13°C
Dew Point: 54°F , 12°C
Humidity: 94%
Barometer: 29.64 inHg , 1003.7 hPa
Clouds: Mostly cloudy
Visibility: 10 miles , 16 km
Cloud details: Mostly cloudy 12000 ft
2021/04/12 07:35 KJYO 120735Z AUTO 03005KT 10SM BKN120 13/12 A2964 RMK AO2 LTG DSNT E
KCGS - College Park, Maryland, USA
Distance from station: ENE 24mi, 38km
Updated: Mon, 12-Apr-2021 3:35am EDT
Overcast
Overcast
 Wind from NNE
Wind: NNE 3 mph , 6 km/h
Temperature: 59°F , 15°C
Dew Point: 52°F , 11°C
Humidity: 77%
Barometer: 29.61 inHg , 1002.7 hPa
Clouds: Overcast
Cloud details: Partly cloudy 1400 ft
Mostly cloudy 10000 ft
Overcast 12000 ft
2021/04/12 07:35 KCGS 120735Z AUTO 02003KT SCT014 BKN100 OVC120 15/11 A2961 RMK AO1 T01450113
 
KGAI - Gaithersburg, Maryland, USA
Distance from station: NNE 26mi, 41km
Updated: Mon, 12-Apr-2021 2:56am EDT
Overcast
Overcast
 Wind from varies
Wind: varies 3 mph , 6 km/h
Temperature: 57°F , 14°C
Dew Point: 52°F , 11°C
Humidity: 82%
Barometer: 29.62 inHg , 1003 hPa
Clouds: Overcast
Visibility: 10 miles , 16 km
Cloud details: Mostly cloudy 9000 ft
Overcast 11000 ft
2021/04/12 06:56 KGAI 120656Z AUTO VRB03KT 10SM BKN090 OVC110 14/11 A2962 RMK AO2 RAB04E18B34E45 SLP042 P0000 T01390111
KHWY - Warrenton, Virginia, USA
Distance from station: SW 28mi, 44km
Updated: Mon, 12-Apr-2021 3:35am EDT
Mostly cloudy
Mostly cloudy
 Wind from N
Wind: N 3 mph , 6 km/h
Temperature: 61°F , 16°C
Dew Point: 48°F , 9°C
Humidity: 63%
Barometer: 29.60 inHg , 1002.4 hPa
Clouds: Mostly cloudy
Visibility: 10 miles , 16 km
Cloud details: Mostly cloudy 12000 ft
2021/04/12 07:35 KHWY 120735Z AUTO 01003KT 10SM BKN120 16/09 A2960 RMK AO2 LTG DSNT E T01550087
 
KRMN - Stafford Regnl, Virginia, USA
Distance from station: SSW 29mi, 47km
Updated: Mon, 12-Apr-2021 3:35am EDT
Clear
Clear
 Wind from calm
Wind: Calm
Temperature: 63°F , 17°C
Dew Point: 41°F , 5°C
Humidity: 45%
Barometer: 29.63 inHg , 1003.4 hPa
Clouds: Clear
Visibility: 10 miles , 16 km
2021/04/12 07:35 KRMN 120735Z AUTO 00000KT 10SM CLR 17/05 A2963 RMK AO2 LTG DSNT E T01660045
KFME - Fort Meade, Maryland, USA
Distance from station: NE 34mi, 55km
Updated: Mon, 12-Apr-2021 3:35am EDT
Overcast
Overcast
 Wind from ENE
Wind: ENE 5 mph , 7 km/h
Temperature: 55°F , 13°C
Dew Point: 54°F , 12°C
Humidity: 94%
Barometer: 29.64 inHg , 1003.7 hPa
Clouds: Overcast
Visibility: 10 miles , 16 km
Cloud details: Mostly cloudy 900 ft
Overcast 12000 ft
2021/04/12 07:35 KFME 120735Z AUTO 06004KT 10SM BKN009 OVC120 13/12 A2964 RMK AO1
 
KCJR - Culpeper, Virginia, USA
Distance from station: WSW 36mi, 58km
Updated: Mon, 12-Apr-2021 3:35am EDT
Partly cloudy
Partly cloudy
 Wind from calm
Wind: Calm
Temperature: 57°F , 14°C
Dew Point: 46°F , 8°C
Humidity: 67%
Barometer: 29.61 inHg , 1002.7 hPa
Clouds: Partly cloudy
Visibility: 10 miles , 16 km
Cloud details: Partly cloudy 12000 ft
2021/04/12 07:35 KCJR 120735Z AUTO 00000KT 10SM SCT120 14/08 A2961 RMK AO2 T01440080
KEZF - Fredericksb/Shan, Virginia, USA
Distance from station: SSW 38mi, 62km
Updated: Mon, 12-Apr-2021 3:35am EDT
Clear
Clear
 Wind from NNW
Wind: NNW 3 mph , 6 km/h
Temperature: 63°F , 17°C
Dew Point: 48°F , 9°C
Humidity: 59%
Barometer: 29.58 inHg , 1001.7 hPa
Clouds: Clear
Visibility: 10 miles , 16 km
2021/04/12 07:35 KEZF 120735Z AUTO 33003KT 10SM CLR 17/09 A2958 RMK AO2 T01690085
 
KBWI - Balto/Wash Intl, Maryland, USA
Distance from station: NE 41mi, 66km
Updated: Mon, 12-Apr-2021 3:20am EDT
Overcast
Overcast
 Wind from NE
Wind: NE 8 mph , 13 km/h
Temperature: 55°F , 13°C
Dew Point: 52°F , 11°C
Humidity: 88%
Barometer: 29.61 inHg , 1002.7 hPa
Clouds: Overcast
Visibility: 10 miles , 16 km
Cloud details: Partly cloudy 900 ft
Mostly cloudy 1500 ft
Overcast 12000 ft
2021/04/12 07:20 KBWI 120720Z 05007KT 10SM SCT009 BKN015 OVC120 13/11 A2961 RMK AO2 T01330111 $
KFDK - Frederick, Maryland, USA
Distance from station: N 42mi, 68km
Updated: Mon, 12-Apr-2021 3:35am EDT
Overcast
Overcast
 Wind from N
Wind: N 6 mph , 9 km/h
Temperature: 55°F , 13°C
Dew Point: 54°F , 12°C
Humidity: 94%
Barometer: 29.63 inHg , 1003.4 hPa
Clouds: Overcast
Visibility: 10 miles , 16 km
Cloud details: Overcast 10000 ft
2021/04/12 07:35 KFDK 120735Z AUTO 01005KT 10SM OVC100 13/12 A2963 RMK AO2 LTG DSNT E
 
KNAK - Annapolis/Naval, Maryland, USA
Distance from station: ENE 45mi, 73km
Updated: Mon, 12-Apr-2021 2:54am EDT
Overcast
Overcast
 Wind from NNE
Wind: NNE 9 mph , 15 km/h
Temperature: 55°F , 13°C
Dew Point: 54°F , 12°C
Humidity: 94%
Barometer: 29.60 inHg , 1002.4 hPa
Clouds: Overcast
Visibility: 10 miles , 16 km
Cloud details: Overcast 1100 ft
2021/04/12 06:54 KNAK 120654Z AUTO 02008KT 10SM OVC011 13/12 A2960 RMK AO2 SLP024 T01330122 $